Time;durP1;ratioP1;P1;durP2;ratioP2;P2;SDS_P1;SDS_P2;PMS_P1;PMS_P2;Temp;Humidity;BMP_temperature;BMP_pressure;BME280_temperature;BME280_humidity;BME280_pressure;Samples;Min_cycle;Max_cycle;Signal;HPM_P1;HPM_P2
2021/04/15 00:00:32;;;;;;;8.63;4.78;;;;;;;3.02;79.98;101603.63;5017480;28;20054;-73
2021/04/15 00:03:11;;;;;;;9.63;4.55;;;;;;;2.98;79.79;101598.38;5016518;28;20054;-72
2021/04/15 00:05:38;;;;;;;6.38;3.95;;;;;;;3.03;79.87;101600.97;5017264;28;20431;-71
2021/04/15 00:08:06;;;;;;;8.80;4.10;;;;;;;2.98;79.83;101600.13;5018428;28;20112;-72
2021/04/15 00:10:39;;;;;;;11.98;4.70;;;;;;;2.87;79.89;101609.88;5017530;28;20066;-71
2021/04/15 00:13:11;;;;;;;6.50;3.92;;;;;;;2.83;80.17;101603.75;5017158;28;20081;-72
2021/04/15 00:15:37;;;;;;;6.07;4.22;;;;;;;2.69;80.35;101598.53;5016305;28;20049;-72
2021/04/15 00:18:03;;;;;;;10.35;4.38;;;;;;;2.69;80.43;101612.59;5017001;28;20100;-71
2021/04/15 00:20:30;;;;;;;5.45;4.20;;;;;;;2.60;80.51;101610.00;5016057;28;20057;-69
2021/04/15 00:22:57;;;;;;;5.43;4.28;;;;;;;2.51;80.94;101613.53;5017814;28;20436;-71
2021/04/15 00:25:24;;;;;;;7.55;4.18;;;;;;;2.44;80.95;101617.97;5019056;28;20064;-71
2021/04/15 00:27:52;;;;;;;8.00;4.53;;;;;;;2.10;81.66;101581.19;5017918;28;20129;-71
2021/04/15 00:30:20;;;;;;;8.10;4.25;;;;;;;2.26;81.57;101599.56;5016713;28;20108;-69
2021/04/15 00:32:46;;;;;;;6.78;4.25;;;;;;;2.34;81.51;101612.75;5016620;28;20062;-70
2021/04/15 00:35:13;;;;;;;8.55;4.60;;;;;;;2.34;81.54;101599.56;5016029;28;20049;-70
2021/04/15 00:37:40;;;;;;;13.18;4.20;;;;;;;2.40;81.11;101599.53;5016534;28;20061;-71
2021/04/15 00:40:08;;;;;;;12.10;5.10;;;;;;;2.29;81.51;101600.44;5016722;28;20058;-70
2021/04/15 00:42:36;;;;;;;7.55;5.35;;;;;;;2.19;81.73;101606.63;5015364;28;20428;-70
2021/04/15 00:45:10;;;;;;;8.63;4.68;;;;;;;2.19;82.24;101600.47;5016771;28;20042;-71
2021/04/15 00:47:39;;;;;;;7.05;4.05;;;;;;;2.08;82.48;101597.88;5015818;28;20116;-70
2021/04/15 00:50:12;;;;;;;8.50;4.93;;;;;;;2.05;82.60;101592.63;5015511;28;20104;-70
2021/04/15 00:52:43;;;;;;;6.90;4.10;;;;;;;2.01;82.46;101592.63;5015540;28;20057;-73
2021/04/15 00:55:16;;;;;;;5.50;3.85;;;;;;;1.96;82.07;101589.09;5016355;28;20049;-71
2021/04/15 00:57:48;;;;;;;5.70;4.18;;;;;;;2.00;82.57;101596.13;5016410;28;20062;-71
2021/04/15 01:00:17;;;;;;;10.05;4.55;;;;;;;1.89;82.80;101584.75;5016209;28;20057;-69
2021/04/15 01:02:44;;;;;;;7.68;4.50;;;;;;;1.86;82.78;101585.63;5016077;28;20084;-71
2021/04/15 01:05:22;;;;;;;6.65;4.30;;;;;;;1.85;82.83;101594.41;5016056;28;20124;-71
2021/04/15 01:07:50;;;;;;;7.85;4.30;;;;;;;1.82;82.78;101588.25;5015095;28;20436;-71
2021/04/15 01:10:17;;;;;;;10.40;4.63;;;;;;;1.84;82.70;101573.34;5016159;28;20053;-72
2021/04/15 01:13:02;;;;;;;8.82;4.60;;;;;;;1.85;82.75;101585.66;5016024;28;20057;-72
2021/04/15 01:15:54;;;;;;;6.80;4.65;;;;;;;1.81;82.88;101582.13;5016354;28;20094;-71
2021/04/15 01:18:31;;;;;;;9.10;4.53;;;;;;;1.73;83.23;101584.78;5015398;28;20053;-71
2021/04/15 01:21:08;;;;;;;9.73;4.68;;;;;;;1.61;83.14;101583.03;5015270;28;20432;-70
2021/04/15 01:23:52;;;;;;;7.47;4.45;;;;;;;1.53;83.89;101579.50;5015496;28;20049;-70
2021/04/15 01:26:24;;;;;;;6.70;4.65;;;;;;;1.49;83.81;101578.63;5015163;28;20054;-71
2021/04/15 01:29:22;;;;;;;10.68;4.70;;;;;;;1.48;83.89;101576.88;5015809;28;20145;-71
2021/04/15 01:32:22;;;;;;;6.07;4.55;;;;;;;1.50;83.89;101579.53;5015760;28;20046;-72
2021/04/15 01:34:53;;;;;;;7.57;4.63;;;;;;;1.38;83.81;101566.38;5016104;28;20046;-71
2021/04/15 01:37:35;;;;;;;6.03;4.30;;;;;;;1.43;83.94;101573.41;5014512;28;20111;-72
2021/04/15 01:40:07;;;;;;;9.32;4.65;;;;;;;1.31;84.12;101560.25;5015592;28;20359;-69
2021/04/15 01:42:41;;;;;;;7.72;5.25;;;;;;;1.32;83.97;101580.41;5015843;28;20053;-71
2021/04/15 01:45:10;;;;;;;9.05;4.93;;;;;;;1.27;84.34;101571.63;5015880;28;20045;-70
2021/04/15 01:47:45;;;;;;;5.97;4.47;;;;;;;1.27;84.47;101577.78;5014387;28;20054;-72
2021/04/15 01:50:19;;;;;;;9.50;4.93;;;;;;;1.26;84.58;101578.66;5015561;28;20105;-70
2021/04/15 01:52:49;;;;;;;11.70;4.82;;;;;;;1.22;84.42;101572.50;5015388;28;20049;-70
2021/04/15 01:55:21;;;;;;;11.55;6.03;;;;;;;1.07;84.57;101575.13;5015069;28;20076;-71
2021/04/15 01:58:06;;;;;;;8.55;5.03;;;;;;;0.99;85.62;101576.84;5015295;28;20428;-70
2021/04/15 02:00:34;;;;;;;9.75;6.10;;;;;;;1.05;84.60;101576.88;5015722;28;20137;-72
2021/04/15 02:03:10;;;;;;;11.30;4.88;;;;;;;1.02;85.84;101571.59;5015688;28;20053;-70
2021/04/15 02:05:39;;;;;;;11.10;5.15;;;;;;;1.06;85.64;101576.88;5015619;28;20383;-70
2021/04/15 02:08:08;;;;;;;7.50;5.13;;;;;;;0.95;85.51;101570.72;5015448;28;20060;-70
2021/04/15 02:10:38;;;;;;;9.90;5.20;;;;;;;0.86;85.64;101562.81;5015295;28;20061;-69
2021/04/15 02:13:08;;;;;;;11.52;4.80;;;;;;;0.94;84.68;101572.47;5015345;28;20046;-70
2021/04/15 02:15:45;;;;;;;9.07;5.00;;;;;;;0.88;85.53;101568.97;5015359;28;20057;-71
2021/04/15 02:18:39;;;;;;;7.57;5.18;;;;;;;0.78;85.93;101570.69;5015113;28;20046;-72
2021/04/15 02:21:18;;;;;;;7.13;4.65;;;;;;;0.80;85.38;101577.72;5030685;28;20069;-72
2021/04/15 02:23:59;;;;;;;9.98;5.50;;;;;;;0.86;84.92;101576.84;5015151;28;20054;-72
2021/04/15 02:26:36;;;;;;;9.02;4.93;;;;;;;0.89;84.84;101587.38;5014036;28;20168;-71
2021/04/15 02:29:10;;;;;;;7.70;4.68;;;;;;;0.56;85.38;101552.25;5015235;28;20050;-70
2021/04/15 02:31:44;;;;;;;10.90;5.43;;;;;;;0.69;85.48;101579.41;5015456;28;20058;-72
2021/04/15 02:34:17;;;;;;;8.45;5.10;;;;;;;0.69;85.75;101581.19;5015473;28;20104;-71
2021/04/15 02:36:45;;;;;;;8.10;5.35;;;;;;;0.59;85.05;101565.38;5015089;28;20069;-71
2021/04/15 02:39:21;;;;;;;9.38;5.28;;;;;;;0.69;85.74;101578.56;5014907;28;20459;-70
2021/04/15 02:41:50;;;;;;;11.57;5.20;;;;;;;0.65;85.23;101567.16;5014912;28;20080;-72
2021/04/15 02:44:25;;;;;;;9.77;5.32;;;;;;;0.65;85.91;101581.16;5014805;28;20046;-70
2021/04/15 02:47:11;;;;;;;13.63;5.80;;;;;;;0.70;85.84;101586.41;5015295;28;20062;-71
2021/04/15 02:49:37;;;;;;;11.43;5.68;;;;;;;0.71;85.35;101587.31;5014813;28;20045;-70
2021/04/15 02:52:11;;;;;;;8.50;5.05;;;;;;;0.62;85.56;101590.78;4997392;28;20057;-69
2021/04/15 02:54:42;;;;;;;14.85;5.93;;;;;;;0.62;85.77;101594.31;5014835;28;20351;-70
2021/04/15 02:57:17;;;;;;;10.15;5.55;;;;;;;0.62;85.51;101594.31;5014828;28;20428;-69
2021/04/15 02:59:50;;;;;;;10.43;5.13;;;;;;;0.57;85.75;101592.50;5014789;28;20448;-70
2021/04/15 03:02:26;;;;;;;8.93;5.90;;;;;;;0.53;86.08;101597.75;5030439;28;20049;-71
2021/04/15 03:04:58;;;;;;;10.80;5.78;;;;;;;0.50;86.14;101591.63;5015114;28;20047;-69
2021/04/15 03:07:27;;;;;;;13.85;5.90;;;;;;;0.42;86.46;101596.84;5018764;28;20064;-71
2021/04/15 03:09:58;;;;;;;12.82;6.53;;;;;;;0.45;86.56;101595.97;5018443;28;20069;-72
2021/04/15 03:12:40;;;;;;;11.38;6.30;;;;;;;0.33;86.24;101592.41;5018050;28;20065;-69
2021/04/15 03:15:28;;;;;;;12.23;6.55;;;;;;;0.37;86.30;101588.03;5018106;28;20442;-69
2021/04/15 03:17:59;;;;;;;14.13;6.95;;;;;;;0.42;86.27;101590.72;5017120;28;20432;-70
2021/04/15 03:21:02;;;;;;;10.32;6.25;;;;;;;0.38;86.33;101592.47;5018348;28;20058;-69
2021/04/15 03:23:37;;;;;;;12.00;6.60;;;;;;;0.38;86.21;101590.69;5017178;28;20057;-69
2021/04/15 03:26:17;;;;;;;9.90;6.03;;;;;;;0.34;86.37;101590.69;5018209;28;20050;-71
2021/04/15 03:29:04;;;;;;;15.55;8.20;;;;;;;0.32;87.03;101598.53;5017887;28;20518;-69
2021/04/15 03:31:42;;;;;;;9.07;6.25;;;;;;;0.31;87.36;101596.78;5017954;28;20427;-70
2021/04/15 03:34:35;;;;;;;11.73;7.43;;;;;;;0.33;86.80;101597.66;5017747;28;20046;-71
2021/04/15 03:37:01;;;;;;;13.10;7.10;;;;;;;0.26;86.72;101590.63;5017988;28;20100;-71
2021/04/15 03:39:32;;;;;;;10.73;7.63;;;;;;;0.26;87.07;101591.50;5017924;28;20050;-70
2021/04/15 03:42:06;;;;;;;14.57;6.88;;;;;;;0.23;87.08;101591.47;5017621;28;20092;-72
2021/04/15 03:44:41;;;;;;;11.88;7.10;;;;;;;0.16;86.86;101587.06;5017462;28;20058;-69
2021/04/15 03:47:14;;;;;;;15.45;7.32;;;;;;;0.23;86.85;101602.00;5017650;28;20054;-71
2021/04/15 03:49:53;;;;;;;11.43;7.53;;;;;;;0.10;87.12;101594.91;5017520;28;20452;-71
2021/04/15 03:52:32;;;;;;;10.80;6.90;;;;;;;0.11;87.21;101597.56;5032805;28;20058;-70
2021/04/15 03:55:22;;;;;;;14.40;6.90;;;;;;;0.10;86.82;101593.19;5017537;28;20112;-72
2021/04/15 03:57:52;;;;;;;10.85;7.32;;;;;;;0.16;86.92;101600.19;5017378;28;20468;-73
2021/04/15 04:00:40;;;;;;;12.18;7.22;;;;;;;0.19;86.78;101602.88;5016115;28;20054;-73
2021/04/15 04:03:15;;;;;;;18.23;7.75;;;;;;;0.17;86.63;101606.34;5015978;28;20061;-71
2021/04/15 04:05:47;;;;;;;11.40;7.47;;;;;;;0.08;87.65;101589.69;5017223;28;20080;-71
2021/04/15 04:08:36;;;;;;;12.90;7.55;;;;;;;0.16;87.91;101594.09;5017383;28;20054;-73
2021/04/15 04:11:04;;;;;;;13.00;7.13;;;;;;;0.06;87.67;101596.63;5017162;28;20061;-71
2021/04/15 04:13:34;;;;;;;17.88;8.70;;;;;;;-0.05;87.99;101582.59;5016982;28;20455;-71
2021/04/15 04:16:17;;;;;;;13.55;7.75;;;;;;;-0.01;87.70;101601.00;5017086;28;20069;-69
2021/04/15 04:18:54;;;;;;;16.58;8.00;;;;;;;-0.10;87.97;101592.19;5016712;28;20050;-70
2021/04/15 04:21:38;;;;;;;14.70;7.60;;;;;;;0.01;87.26;101600.13;5017059;28;20053;-70
2021/04/15 04:24:34;;;;;;;11.25;6.80;;;;;;;-0.01;87.45;101608.88;5016627;28;20104;-70
2021/04/15 04:27:11;;;;;;;13.20;7.45;;;;;;;-0.03;87.26;101605.38;5016857;28;20054;-70
2021/04/15 04:29:40;;;;;;;14.27;7.57;;;;;;;0.09;86.65;101615.06;5016953;28;20120;-71
2021/04/15 04:32:11;;;;;;;11.80;8.10;;;;;;;0.03;87.64;101617.63;5016811;28;20111;-73
2021/04/15 04:34:38;;;;;;;;;;;;;;;0.04;87.19;101619.38;5017260;28;20056;-72
2021/04/15 04:37:08;;;;;;;13.65;7.75;;;;;;;-0.06;87.86;101610.56;5016620;28;19925;-71
2021/04/15 04:39:36;;;;;;;10.65;7.85;;;;;;;-0.04;87.31;101615.84;5016744;28;20066;-72
2021/04/15 04:42:14;;;;;;;16.25;8.60;;;;;;;0.01;87.49;101602.75;5016600;28;20353;-71
2021/04/15 04:44:46;;;;;;;16.85;7.78;;;;;;;0.06;87.10;101614.16;5016843;28;20344;-69
2021/04/15 04:47:30;;;;;;;12.27;7.65;;;;;;;0.05;87.25;101618.53;5016502;28;20050;-71
2021/04/15 04:50:09;;;;;;;12.48;7.78;;;;;;;0.09;87.59;101622.94;5016487;28;20053;-70
2021/04/15 04:52:36;;;;;;;13.23;8.82;;;;;;;0.06;87.86;101622.03;5016883;28;20072;-68
2021/04/15 04:55:16;;;;;;;14.25;7.60;;;;;;;0.07;87.58;101624.69;5015506;28;20050;-69
2021/04/15 04:57:42;;;;;;;12.48;8.02;;;;;;;0.05;87.36;101623.78;5014563;28;20055;-73
2021/04/15 05:00:13;;;;;;;11.95;7.97;;;;;;;0.04;87.72;101627.28;5016250;28;20092;-71
2021/04/15 05:02:40;;;;;;;19.48;8.65;;;;;;;0.01;87.68;101619.38;5016310;28;20054;-71
2021/04/15 05:05:19;;;;;;;13.70;8.27;;;;;;;0.06;87.26;101622.91;5015224;28;20050;-71
2021/04/15 05:07:45;;;;;;;17.33;8.52;;;;;;;0.00;87.60;101628.13;5016135;28;20445;-73
2021/04/15 05:10:24;;;;;;;18.13;8.10;;;;;;;0.01;87.96;101632.50;5016311;28;20054;-73
2021/04/15 05:12:58;;;;;;;17.55;8.13;;;;;;;-0.02;87.67;101633.38;5015306;28;20053;-72
2021/04/15 05:15:25;;;;;;;11.68;7.80;;;;;;;0.02;87.96;101631.63;5013044;28;20061;-70
2021/04/15 05:17:51;;;;;;;19.70;8.07;;;;;;;0.06;87.13;101630.78;4997096;28;20062;-71
2021/04/15 05:20:20;;;;;;;15.18;8.25;;;;;;;0.04;87.38;101643.03;5010560;28;20132;-72
2021/04/15 05:23:04;;;;;;;15.50;8.35;;;;;;;0.06;87.65;101643.91;5005793;28;20427;-71
2021/04/15 05:25:52;;;;;;;11.60;8.38;;;;;;;0.11;87.52;101644.81;5012963;28;20053;-73
2021/04/15 05:28:20;;;;;;;12.82;8.32;;;;;;;0.10;87.63;101656.19;5014604;28;20383;-72
2021/04/15 05:30:49;;;;;;;12.43;8.23;;;;;;;0.04;87.31;101636.91;5015576;28;20050;-72
2021/04/15 05:33:25;;;;;;;12.18;8.60;;;;;;;0.17;87.53;101649.25;5016051;28;20100;-73
2021/04/15 05:36:03;;;;;;;16.88;8.45;;;;;;;0.21;87.58;101656.25;5016190;28;20058;-72
2021/04/15 05:38:58;;;;;;;13.43;8.98;;;;;;;0.21;87.79;101650.16;5015062;28;20049;-69
2021/04/15 05:41:24;;;;;;;10.77;8.05;;;;;;;0.27;87.23;101652.78;5014657;28;20058;-70
2021/04/15 05:43:53;;;;;;;15.10;8.95;;;;;;;0.39;87.40;101665.13;5015467;28;20132;-71
2021/04/15 05:46:26;;;;;;;16.83;9.32;;;;;;;0.36;87.50;101660.72;5015765;28;20057;-70
2021/04/15 05:48:59;;;;;;;14.38;8.90;;;;;;;0.31;88.02;101643.16;5015994;28;20053;-72
2021/04/15 05:51:32;;;;;;;13.32;9.02;;;;;;;0.47;87.74;101660.78;5016339;28;20117;-75
2021/04/15 05:54:05;;;;;;;14.20;8.85;;;;;;;0.52;87.47;101656.44;5014608;28;20065;-74
2021/04/15 05:56:38;;;;;;;12.57;8.27;;;;;;;0.55;87.59;101660.84;5014777;28;20352;-73
2021/04/15 05:59:22;;;;;;;14.88;9.02;;;;;;;0.66;88.28;101669.63;5015493;28;20057;-73
2021/04/15 06:01:55;;;;;;;15.20;9.80;;;;;;;0.75;87.96;101663.53;5014690;28;20104;-72
2021/04/15 06:04:31;;;;;;;11.52;8.88;;;;;;;0.79;87.71;101648.66;5015378;28;20088;-70
2021/04/15 06:07:03;;;;;;;14.25;8.43;;;;;;;0.93;88.27;101657.47;5015589;28;20061;-72
2021/04/15 06:09:30;;;;;;;12.50;9.32;;;;;;;1.01;87.53;101665.38;5015498;28;20050;-71
2021/04/15 06:12:01;;;;;;;12.45;8.52;;;;;;;1.05;87.67;101661.00;5015173;28;20124;-71
2021/04/15 06:14:45;;;;;;;16.10;8.65;;;;;;;1.06;86.67;101663.66;5015450;28;20053;-71
2021/04/15 06:17:19;;;;;;;16.00;9.38;;;;;;;1.13;86.92;101658.41;5015124;28;20401;-72
2021/04/15 06:19:52;;;;;;;13.73;8.57;;;;;;;1.20;86.77;101661.03;5015446;28;20049;-74
2021/04/15 06:22:30;;;;;;;18.10;10.15;;;;;;;1.27;86.49;101658.44;5013980;28;20049;-72
2021/04/15 06:25:05;;;;;;;16.65;9.48;;;;;;;1.27;86.34;101655.81;5014594;28;20041;-71
2021/04/15 06:27:31;;;;;;;16.48;9.20;;;;;;;1.30;85.91;101647.94;5015365;28;20136;-72
2021/04/15 06:30:04;;;;;;;14.32;9.15;;;;;;;1.45;85.73;101660.22;5015308;28;20050;-73
2021/04/15 06:32:49;;;;;;;18.02;9.95;;;;;;;1.45;85.92;101661.09;5014950;28;20050;-72
2021/04/15 06:35:31;;;;;;;17.92;9.40;;;;;;;1.55;85.66;101664.63;5030355;28;20050;-73
2021/04/15 06:38:02;;;;;;;15.80;8.93;;;;;;;1.60;85.44;101667.25;5015200;28;20359;-71
2021/04/15 06:40:50;;;;;;;13.68;9.15;;;;;;;1.67;85.81;101665.47;5031766;28;20390;-69
2021/04/15 06:43:39;;;;;;;16.42;9.48;;;;;;;1.67;85.37;101676.00;5018795;28;20415;-74
2021/04/15 06:46:40;;;;;;;14.85;8.95;;;;;;;1.73;84.65;101673.38;5018858;28;20061;-72
2021/04/15 06:49:10;;;;;;;23.60;9.32;;;;;;;1.79;84.77;101669.91;5019469;28;20058;-74
2021/04/15 06:52:11;;;;;;;13.07;8.75;;;;;;;1.83;85.06;101669.88;5018792;28;20144;-71
2021/04/15 06:54:52;;;;;;;15.13;9.15;;;;;;;1.94;84.34;101669.88;5019124;28;20054;-71
2021/04/15 06:57:36;;;;;;;14.75;8.40;;;;;;;1.93;83.60;101668.13;5018818;28;20061;-70
2021/04/15 07:00:42;;;;;;;22.88;8.23;;;;;;;2.01;83.56;101666.34;5034162;28;20108;-70
2021/04/15 07:03:27;;;;;;;13.00;7.65;;;;;;;2.06;83.28;101661.09;5025516;28;20104;-71
2021/04/15 07:06:01;;;;;;;19.00;8.18;;;;;;;2.18;83.19;101670.72;5022811;28;20436;-71
2021/04/15 07:08:46;;;;;;;16.25;8.18;;;;;;;2.27;82.49;101665.44;5018593;28;20056;-72
2021/04/15 07:11:49;;;;;;;20.30;8.82;;;;;;;2.36;82.01;101668.94;5018903;28;20058;-73
2021/04/15 07:14:21;;;;;;;19.50;8.80;;;;;;;2.38;82.13;101664.53;5018921;28;20049;-71
2021/04/15 07:17:23;;;;;;;19.63;7.45;;;;;;;2.40;81.67;101668.91;5019105;28;20053;-69
2021/04/15 07:20:00;;;;;;;15.38;8.15;;;;;;;2.44;81.12;101664.50;5017605;28;20046;-70
2021/04/15 07:23:03;;;;;;;11.52;8.00;;;;;;;2.52;80.93;101662.75;5018429;28;20053;-70
2021/04/15 07:25:55;;;;;;;12.63;8.63;;;;;;;2.72;80.70;101661.78;5017898;28;20379;-71
2021/04/15 07:28:36;;;;;;;;;;;;;;;2.72;79.90;101665.31;5018286;28;20355;-71
2021/04/15 07:31:36;;;;;;;14.60;8.70;;;;;;;2.62;80.32;101653.03;5017998;28;19934;-70
2021/04/15 07:34:06;;;;;;;14.15;8.48;;;;;;;2.81;80.21;101664.41;5015695;28;20053;-71
2021/04/15 07:36:51;;;;;;;17.23;7.80;;;;;;;3.03;80.01;101655.47;5018327;28;20462;-70
2021/04/15 07:39:46;;;;;;;14.35;8.57;;;;;;;3.04;79.57;101650.22;5018499;28;20061;-70
2021/04/15 07:42:34;;;;;;;12.95;8.02;;;;;;;3.15;79.76;101652.78;5017993;28;20050;-71
2021/04/15 07:45:14;;;;;;;17.38;9.05;;;;;;;3.30;78.43;101661.47;5016819;28;20057;-71
2021/04/15 07:47:47;;;;;;;19.25;8.20;;;;;;;3.30;78.70;101665.00;5016929;28;20069;-71
2021/04/15 07:50:29;;;;;;;13.20;8.07;;;;;;;3.40;78.57;101671.13;5017719;28;20301;-71
2021/04/15 07:53:29;;;;;;;16.90;8.02;;;;;;;3.42;78.03;101668.47;5016769;28;20053;-71
2021/04/15 07:56:14;;;;;;;17.60;9.32;;;;;;;3.48;78.04;101674.56;5017423;28;20125;-70
2021/04/15 07:58:59;;;;;;;21.40;8.73;;;;;;;3.64;77.06;101672.69;5017269;28;20049;-70
2021/04/15 08:01:56;;;;;;;14.68;7.78;;;;;;;3.82;76.49;101665.53;5017240;28;20470;-71
2021/04/15 08:05:00;;;;;;;18.35;8.40;;;;;;;3.94;74.61;101668.03;5017077;28;20136;-70
2021/04/15 08:07:44;;;;;;;17.20;8.65;;;;;;;3.97;74.90;101669.78;4997455;28;20058;-71
2021/04/15 08:10:23;;;;;;;14.85;7.15;;;;;;;4.01;73.96;101670.63;4997559;28;20058;-70
2021/04/15 08:13:27;;;;;;;12.60;7.07;;;;;;;4.01;73.81;101670.63;4997834;28;20058;-72
2021/04/15 08:16:10;;;;;;;18.80;8.02;;;;;;;3.99;73.75;101667.13;4977115;28;20138;-71
2021/04/15 08:19:04;;;;;;;11.75;6.97;;;;;;;4.17;73.98;101672.25;4996269;28;20061;-71
2021/04/15 08:21:42;;;;;;;12.60;7.15;;;;;;;4.51;71.96;101664.84;4997643;28;20706;-72
2021/04/15 08:24:30;;;;;;;16.92;6.82;;;;;;;4.81;70.50;101675.94;4997123;28;20062;-72
2021/04/15 08:27:27;;;;;;;11.18;6.60;;;;;;;4.85;70.21;101673.22;4997409;28;20050;-71
2021/04/15 08:29:56;;;;;;;11.10;5.82;;;;;;;5.02;69.18;101678.31;4997519;28;20058;-71
2021/04/15 08:32:26;;;;;;;17.67;7.95;;;;;;;5.07;68.03;101680.03;4996938;28;20054;-70
2021/04/15 08:35:11;;;;;;;14.52;7.55;;;;;;;5.18;69.32;101675.47;4997373;28;20042;-70
2021/04/15 08:38:10;;;;;;;15.05;8.57;;;;;;;5.25;67.89;101674.50;4996090;28;20356;-71
2021/04/15 08:40:47;;;;;;;18.42;8.07;;;;;;;5.12;68.19;101681.72;4997009;28;20050;-70
2021/04/15 08:43:38;;;;;;;20.65;9.30;;;;;;;5.02;68.48;101688.91;4997248;28;20053;-70
2021/04/15 08:46:19;;;;;;;24.05;9.52;;;;;;;5.02;68.56;101688.91;4997209;28;20054;-71
2021/04/15 08:49:01;;;;;;;18.90;9.07;;;;;;;5.08;67.76;101687.06;4996818;28;20439;-72
2021/04/15 08:52:27;;;;;;;13.27;7.63;;;;;;;5.19;66.38;101686.91;4997141;28;20054;-71
2021/04/15 08:55:23;;;;;;;13.18;7.25;;;;;;;5.43;65.78;101678.63;4977791;28;20137;-71
2021/04/15 08:58:26;;;;;;;19.83;6.65;;;;;;;5.73;64.93;101675.53;5011440;28;20056;-70
2021/04/15 09:01:16;;;;;;;16.52;7.32;;;;;;;5.96;63.47;101668.97;4995426;28;20085;-71
2021/04/15 09:04:26;;;;;;;11.57;6.57;;;;;;;6.24;63.23;101671.16;4996541;28;20439;-72
2021/04/15 09:07:05;;;;;;;13.38;7.25;;;;;;;6.37;62.74;101670.00;4996762;28;20054;-72
2021/04/15 09:09:44;;;;;;;10.82;6.55;;;;;;;6.36;61.33;101665.63;5011661;28;20061;-70
2021/04/15 09:12:18;;;;;;;10.30;6.68;;;;;;;6.48;61.50;101671.59;4996379;28;20062;-72
2021/04/15 09:15:05;;;;;;;10.77;6.18;;;;;;;6.59;60.30;101672.25;4996237;28;20058;-70
2021/04/15 09:17:44;;;;;;;12.63;7.13;;;;;;;6.59;60.84;101666.94;4996010;28;20104;-70
2021/04/15 09:20:14;;;;;;;10.75;5.05;;;;;;;6.71;59.21;101680.88;4996372;28;20104;-71
2021/04/15 09:23:02;;;;;;;8.13;5.35;;;;;;;6.74;58.93;101675.47;4996395;28;20129;-71
2021/04/15 09:25:37;;;;;;;12.00;6.15;;;;;;;6.82;58.33;101670.03;4996048;28;20050;-72
2021/04/15 09:28:10;;;;;;;10.77;6.68;;;;;;;6.56;58.23;101672.31;4995934;28;20058;-71
2021/04/15 09:30:42;;;;;;;8.25;4.50;;;;;;;6.50;57.82;101677.75;4996153;28;20050;-71
2021/04/15 09:33:46;;;;;;;12.60;5.93;;;;;;;6.38;59.35;101682.38;4995896;28;20057;-72
2021/04/15 09:36:12;;;;;;;7.30;4.28;;;;;;;6.23;58.34;101678.22;4995839;28;20046;-70
2021/04/15 09:39:12;;;;;;;9.13;4.50;;;;;;;6.19;58.44;101678.31;4996068;28;20062;-70
2021/04/15 09:41:51;;;;;;;7.15;4.28;;;;;;;6.23;58.54;101680.00;4995985;28;20061;-70
2021/04/15 09:44:20;;;;;;;6.47;4.43;;;;;;;6.02;57.91;101681.22;5011851;28;20061;-71
2021/04/15 09:46:55;;;;;;;6.88;4.60;;;;;;;6.03;58.83;101681.22;4997011;28;20073;-70
2021/04/15 09:49:29;;;;;;;7.53;4.63;;;;;;;5.91;57.93;101682.28;4995863;28;20391;-70
2021/04/15 09:52:27;;;;;;;9.85;5.00;;;;;;;6.03;58.88;101675.94;5011863;28;20108;-71
2021/04/15 09:55:21;;;;;;;12.10;5.35;;;;;;;6.30;59.39;101673.69;4996942;28;20051;-72
2021/04/15 09:58:15;;;;;;;13.00;4.43;;;;;;;6.41;58.13;101668.19;4996025;28;20069;-72
2021/04/15 10:00:47;;;;;;;6.55;3.35;;;;;;;6.45;56.63;101672.53;4996240;28;20050;-72
2021/04/15 10:03:51;;;;;;;5.97;3.08;;;;;;;6.71;56.08;101667.59;4996088;28;20054;-70
2021/04/15 10:06:24;;;;;;;9.23;2.63;;;;;;;6.87;54.32;101671.66;5011152;28;20081;-72
2021/04/15 10:08:59;;;;;;;8.40;3.15;;;;;;;7.10;54.60;101667.66;5015311;28;20461;-74
2021/04/15 10:11:56;;;;;;;7.07;2.45;;;;;;;7.51;53.58;101661.44;5015165;28;20061;-72
2021/04/15 10:14:28;;;;;;;4.35;2.53;;;;;;;7.80;53.02;101658.03;5015095;28;20104;-71
2021/04/15 10:17:07;;;;;;;6.10;2.60;;;;;;;8.19;49.18;101665.03;5017575;28;20053;-70
2021/04/15 10:19:50;;;;;;;5.78;2.80;;;;;;;8.42;50.32;101650.22;5019070;28;20085;-70
2021/04/15 10:22:35;;;;;;;5.78;2.92;;;;;;;8.68;51.10;101656.63;5019465;28;20355;-72
2021/04/15 10:25:09;;;;;;;14.18;3.78;;;;;;;8.65;51.02;101656.69;5017087;28;20088;-72
2021/04/15 10:28:13;;;;;;;6.50;3.80;;;;;;;8.79;50.20;101649.22;5017240;28;20053;-72
2021/04/15 10:31:12;;;;;;;12.27;5.82;;;;;;;8.58;52.85;101645.38;5017822;28;20169;-71
2021/04/15 10:34:14;;;;;;;11.55;6.45;;;;;;;8.05;53.99;101660.06;5017085;28;20100;-70
2021/04/15 10:36:56;;;;;;;13.43;7.03;;;;;;;7.49;57.98;101664.13;5017685;28;20069;-72
2021/04/15 10:40:09;;;;;;;16.02;7.88;;;;;;;6.82;63.07;101657.66;5018069;28;20054;-72
2021/04/15 10:42:41;;;;;;;19.45;8.57;;;;;;;6.32;65.50;101655.09;5019196;28;20058;-70
2021/04/15 10:45:26;;;;;;;10.85;7.90;;;;;;;6.28;68.92;101659.59;5018770;28;20486;-70
2021/04/15 10:48:20;;;;;;;14.27;7.60;;;;;;;6.30;67.56;101660.44;5019417;28;20104;-74
2021/04/15 10:50:56;;;;;;;9.32;5.80;;;;;;;6.30;66.23;101660.44;5019899;28;20406;-72
2021/04/15 10:53:50;;;;;;;14.77;6.68;;;;;;;6.35;66.02;101658.56;5019046;28;20053;-71
2021/04/15 10:56:23;;;;;;;9.65;5.18;;;;;;;6.25;63.72;101659.63;5015307;28;20054;-71
2021/04/15 10:59:01;;;;;;;8.05;4.60;;;;;;;6.23;62.87;101653.50;5018619;28;20116;-72
2021/04/15 11:01:39;;;;;;;9.18;4.80;;;;;;;6.15;62.74;101660.72;5017079;28;20336;-72
2021/04/15 11:04:08;;;;;;;8.40;4.55;;;;;;;6.21;61.81;101657.97;5018442;28;20054;-71
2021/04/15 11:06:46;;;;;;;10.07;5.30;;;;;;;6.53;63.02;101656.44;5018173;28;20060;-73
2021/04/15 11:09:18;;;;;;;7.97;4.70;;;;;;;6.81;62.22;101655.88;5018029;28;20489;-73
2021/04/15 11:12:13;;;;;;;7.20;3.78;;;;;;;7.13;58.91;101645.47;5016875;28;20096;-73
2021/04/15 11:14:46;;;;;;;7.45;4.03;;;;;;;7.22;57.16;101633.75;5017215;28;20064;-73
2021/04/15 11:17:15;;;;;;;5.85;3.85;;;;;;;7.42;58.67;101642.13;5017901;28;20427;-72
2021/04/15 11:19:43;;;;;;;6.65;4.28;;;;;;;7.39;57.75;101630.69;5018127;28;20359;-71
2021/04/15 11:22:27;;;;;;;10.10;4.15;;;;;;;7.42;58.01;101639.47;5016730;28;20136;-72
2021/04/15 11:25:29;;;;;;;12.32;4.35;;;;;;;7.35;58.23;101629.91;5017939;28;20474;-71
2021/04/15 11:27:59;;;;;;;7.22;4.35;;;;;;;7.40;57.88;101637.78;5016531;28;20063;-71
2021/04/15 11:30:40;;;;;;;6.40;3.50;;;;;;;7.47;55.38;101639.38;5017915;28;20054;-72
2021/04/15 11:33:48;;;;;;;6.38;3.58;;;;;;;7.61;57.26;101631.94;5018042;28;20357;-71
2021/04/15 11:36:30;;;;;;;10.63;4.15;;;;;;;7.53;54.25;101633.03;5017708;28;20066;-72
2021/04/15 11:39:06;;;;;;;5.68;3.45;;;;;;;7.58;53.43;101628.50;5016643;28;20131;-70
2021/04/15 11:41:34;;;;;;;7.60;3.17;;;;;;;7.61;51.86;101625.75;5017870;28;20355;-72
2021/04/15 11:44:11;;;;;;;5.93;3.72;;;;;;;7.77;54.43;101630.66;5016787;28;20347;-71
2021/04/15 11:46:48;;;;;;;8.98;4.65;;;;;;;8.19;54.39;101622.47;5017853;28;20061;-69
2021/04/15 11:49:26;;;;;;;7.22;4.57;;;;;;;8.60;53.21;101616.06;5017444;28;20049;-70
2021/04/15 11:52:11;;;;;;;9.45;3.67;;;;;;;8.80;50.62;101613.69;5017665;28;20057;-70
2021/04/15 11:54:38;;;;;;;6.03;3.60;;;;;;;9.25;49.07;101603.41;5017636;28;20050;-71
2021/04/15 11:57:20;;;;;;;5.82;4.20;;;;;;;9.70;47.11;101603.75;5017386;28;20404;-71
2021/04/15 12:00:02;;;;;;;8.52;4.07;;;;;;;10.17;46.23;101597.66;5017352;28;20065;-71
2021/04/15 12:02:29;;;;;;;8.73;4.45;;;;;;;10.42;46.13;101602.97;5016698;28;20068;-72
2021/04/15 12:05:32;;;;;;;9.57;4.10;;;;;;;10.28;45.79;101591.91;5016292;28;20382;-72
2021/04/15 12:08:20;;;;;;;6.72;4.35;;;;;;;10.77;46.42;101585.66;5017012;28;20112;-70
2021/04/15 12:10:58;;;;;;;6.50;4.53;;;;;;;10.38;46.61;101592.44;5017162;28;20064;-70
2021/04/15 12:13:29;;;;;;;8.02;4.93;;;;;;;10.41;47.13;101590.53;5017187;28;20058;-71
2021/04/15 12:16:00;;;;;;;11.13;4.55;;;;;;;9.74;48.38;101589.34;5017397;28;20045;-72
2021/04/15 12:18:29;;;;;;;;;;;;;;;9.27;50.16;101603.38;5016559;28;20053;-71
2021/04/15 12:21:08;;;;;;;5.53;4.15;;;;;;;9.05;51.21;101596.91;5017032;28;20226;-71
2021/04/15 12:23:45;;;;;;;10.07;5.18;;;;;;;9.02;51.94;101607.69;5017308;28;20136;-71